createdAt,value
2023-03-31T00:02:56.083Z,22.48
2023-03-31T00:08:03.970Z,22.49
2023-03-31T00:13:05.375Z,22.51
2023-03-31T00:18:07.090Z,22.47
2023-03-31T00:23:10.815Z,22.47
2023-03-31T00:28:12.543Z,22.50
2023-03-31T00:33:13.958Z,22.52
2023-03-31T00:38:15.320Z,22.47
2023-03-31T00:43:31.219Z,22.47
2023-03-31T00:48:32.911Z,22.48
2023-03-31T00:53:34.314Z,22.45
2023-03-31T00:58:35.695Z,22.45
2023-03-31T01:03:38.257Z,22.48
2023-03-31T01:08:39.970Z,22.49
2023-03-31T01:13:41.610Z,22.46
2023-03-31T01:18:46.140Z,22.48
2023-03-31T01:24:06.000Z,22.48
2023-03-31T01:29:25.505Z,22.45
2023-03-31T01:34:48.215Z,22.45
2023-03-31T01:40:10.710Z,22.47
2023-03-31T01:45:18.734Z,22.46
2023-03-31T01:50:38.013Z,22.46
2023-03-31T01:55:41.639Z,22.49
2023-03-31T02:00:51.723Z,22.46
2023-03-31T02:05:54.905Z,22.45
2023-03-31T02:10:56.334Z,22.46
2023-03-31T02:16:01.441Z,22.45
2023-03-31T02:21:03.284Z,22.44
2023-03-31T02:26:25.305Z,22.50
2023-03-31T02:31:56.377Z,22.52
2023-03-31T02:36:57.787Z,22.52
2023-03-31T02:41:59.163Z,22.56
2023-03-31T02:47:01.321Z,22.58
2023-03-31T02:52:25.802Z,22.55
2023-03-31T02:58:03.217Z,22.48
2023-03-31T03:03:07.544Z,22.52
2023-03-31T03:08:17.700Z,22.49
2023-03-31T03:13:21.396Z,22.44
2023-03-31T03:18:22.763Z,22.45
2023-03-31T03:23:24.210Z,22.47
2023-03-31T03:28:25.620Z,22.48
2023-03-31T03:33:27.065Z,22.47
2023-03-31T03:38:28.452Z,22.48
2023-03-31T03:43:29.832Z,22.46
2023-03-31T03:48:31.212Z,22.44
2023-03-31T03:53:32.613Z,22.48
2023-03-31T03:58:34.260Z,22.48
2023-03-31T04:03:35.819Z,22.45
2023-03-31T04:08:37.260Z,22.45
2023-03-31T04:13:38.654Z,22.49
2023-03-31T04:18:42.909Z,22.45
2023-03-31T04:23:47.260Z,22.47
2023-03-31T04:28:50.583Z,22.48
2023-03-31T04:33:55.105Z,22.49
2023-03-31T04:38:56.582Z,22.45
2023-03-31T04:43:57.979Z,22.47
2023-03-31T04:49:00.795Z,22.54
2023-03-31T04:54:02.190Z,22.54
2023-03-31T04:59:04.326Z,22.55
2023-03-31T05:04:06.041Z,22.56
2023-03-31T05:09:09.479Z,22.58
2023-03-31T05:14:10.921Z,22.57
2023-03-31T05:19:12.326Z,22.55
2023-03-31T05:24:13.821Z,22.59
2023-03-31T05:29:16.562Z,22.61
2023-03-31T05:34:17.950Z,22.58
2023-03-31T05:39:19.354Z,22.60
2023-03-31T05:44:21.070Z,22.65
2023-03-31T05:49:22.603Z,22.63
2023-03-31T05:54:24.035Z,22.65
2023-03-31T05:59:25.473Z,22.66
2023-03-31T06:04:27.685Z,22.66
2023-03-31T06:09:29.139Z,22.64
2023-03-31T06:14:30.813Z,22.64
2023-03-31T06:19:32.264Z,22.66
2023-03-31T06:24:33.820Z,22.73
2023-03-31T06:29:35.457Z,22.83
2023-03-31T06:34:36.837Z,22.93
2023-03-31T06:39:38.215Z,22.95
2023-03-31T06:44:39.996Z,22.95
2023-03-31T06:49:41.382Z,23.00
2023-03-31T06:54:43.152Z,23.03
2023-03-31T06:59:44.627Z,23.05
2023-03-31T07:04:46.031Z,23.09
2023-03-31T07:09:47.405Z,23.08
2023-03-31T07:14:48.836Z,23.13
2023-03-31T07:19:50.210Z,23.18
2023-03-31T07:24:51.603Z,23.18
2023-03-31T07:29:52.982Z,23.22
2023-03-31T07:34:54.363Z,23.25
2023-03-31T07:39:55.761Z,23.21
2023-03-31T07:44:57.714Z,23.24
2023-03-31T07:49:59.094Z,23.24
2023-03-31T07:55:00.551Z,23.31
2023-03-31T08:00:06.931Z,23.23
2023-03-31T08:05:09.103Z,23.26
2023-03-31T08:10:13.123Z,23.27
2023-03-31T08:15:14.495Z,23.27
2023-03-31T08:20:15.898Z,23.33
2023-03-31T08:25:17.327Z,23.35
2023-03-31T08:30:19.226Z,23.35
2023-03-31T08:35:20.603Z,23.37
2023-03-31T08:40:24.101Z,23.38
2023-03-31T08:45:46.438Z,23.37
2023-03-31T08:50:50.836Z,23.35
2023-03-31T08:55:53.427Z,23.25
2023-03-31T09:01:02.200Z,23.22
2023-03-31T09:06:30.047Z,23.16
2023-03-31T09:11:47.867Z,23.12
2023-03-31T09:16:54.879Z,23.09
2023-03-31T09:21:56.369Z,23.14
2023-03-31T09:27:01.995Z,23.16
2023-03-31T09:32:20.587Z,23.17
2023-03-31T09:37:22.062Z,23.21
2023-03-31T09:42:23.438Z,23.19
2023-03-31T09:47:38.962Z,23.24
2023-03-31T09:52:44.480Z,23.30
2023-03-31T09:57:46.276Z,23.28
2023-03-31T10:02:52.237Z,23.34
2023-03-31T10:08:13.253Z,23.30
2023-03-31T10:13:17.442Z,23.28
2023-03-31T10:18:19.368Z,23.25
2023-03-31T10:23:20.798Z,23.27
2023-03-31T10:28:22.521Z,23.29
2023-03-31T10:33:25.622Z,23.30
2023-03-31T10:38:37.826Z,23.25
2023-03-31T10:43:42.897Z,23.22
2023-03-31T10:48:45.428Z,23.29
2023-03-31T10:53:48.443Z,23.42
2023-03-31T10:59:05.352Z,23.45
2023-03-31T11:04:27.075Z,23.36
2023-03-31T11:10:16.746Z,23.39
2023-03-31T11:15:35.412Z,23.37
2023-03-31T11:20:41.935Z,23.34
2023-03-31T11:25:53.170Z,23.40
2023-03-31T11:31:13.800Z,23.39
2023-03-31T11:36:36.884Z,23.38
2023-03-31T11:41:44.400Z,23.37
2023-03-31T11:46:52.183Z,23.40
2023-03-31T11:51:55.741Z,23.38
2023-03-31T11:56:57.391Z,23.45
2023-03-31T12:02:14.099Z,23.42
2023-03-31T12:07:36.305Z,23.41
2023-03-31T12:13:25.607Z,23.44
2023-03-31T12:18:27.002Z,23.47
2023-03-31T12:23:30.169Z,23.48
2023-03-31T12:28:32.594Z,23.52
2023-03-31T12:33:40.272Z,23.45
2023-03-31T12:39:06.567Z,23.48
2023-03-31T12:44:16.917Z,23.49
2023-03-31T12:49:41.432Z,23.47
2023-03-31T12:55:04.927Z,23.39
2023-03-31T13:00:12.561Z,23.43
2023-03-31T13:05:38.754Z,23.49
2023-03-31T13:10:58.754Z,23.43
2023-03-31T13:16:01.045Z,23.50
2023-03-31T13:21:06.141Z,23.49
2023-03-31T13:26:34.344Z,23.53
2023-03-31T13:32:03.837Z,23.52
2023-03-31T13:37:05.189Z,23.50
2023-03-31T13:42:36.852Z,23.48
2023-03-31T13:47:54.225Z,23.56
2023-03-31T13:53:28.490Z,23.58
2023-03-31T13:58:38.749Z,23.48
2023-03-31T14:04:19.627Z,23.42
2023-03-31T14:09:25.736Z,23.28
2023-03-31T14:14:27.896Z,23.25
2023-03-31T14:19:51.775Z,23.24
2023-03-31T14:25:21.907Z,23.14
2023-03-31T14:30:39.070Z,23.15
2023-03-31T14:35:53.008Z,23.12
2023-03-31T14:40:56.174Z,23.07
2023-03-31T14:46:07.462Z,23.09
2023-03-31T14:51:09.647Z,23.08
2023-03-31T14:56:20.528Z,23.05
2023-03-31T15:01:26.058Z,23.04
2023-03-31T15:06:27.556Z,23.01
2023-03-31T15:11:29.269Z,23.03
2023-03-31T15:16:34.739Z,22.96
2023-03-31T15:21:37.427Z,22.96
2023-03-31T15:26:42.222Z,22.98
2023-03-31T15:31:44.238Z,22.96
2023-03-31T15:36:45.780Z,22.93
2023-03-31T15:41:47.406Z,22.95
2023-03-31T15:46:51.119Z,22.95
2023-03-31T15:51:53.052Z,22.92
2023-03-31T15:56:56.281Z,22.92
2023-03-31T16:01:59.681Z,22.93
2023-03-31T16:07:08.068Z,22.90
2023-03-31T16:12:25.317Z,22.87
2023-03-31T16:17:30.840Z,22.88
2023-03-31T16:22:37.121Z,22.86
2023-03-31T16:27:43.375Z,22.83
2023-03-31T16:33:03.953Z,22.80
2023-03-31T16:38:06.072Z,22.81
2023-03-31T16:43:27.106Z,22.80
2023-03-31T16:48:29.090Z,22.79
2023-03-31T16:53:33.600Z,22.79
2023-03-31T16:58:35.821Z,22.80
2023-03-31T17:03:38.371Z,22.77
2023-03-31T17:08:40.050Z,22.76
2023-03-31T17:13:42.040Z,22.80
2023-03-31T17:18:44.039Z,22.73
2023-03-31T17:23:46.416Z,22.73
2023-03-31T17:28:47.802Z,22.73
2023-03-31T17:33:49.281Z,22.71
2023-03-31T17:38:50.729Z,22.66
2023-03-31T17:43:52.115Z,22.70
2023-03-31T17:48:54.438Z,22.71
2023-03-31T17:53:56.203Z,22.65
2023-03-31T17:58:57.595Z,22.66
2023-03-31T18:03:59.285Z,22.71
2023-03-31T18:09:00.764Z,22.66
2023-03-31T18:14:02.665Z,22.65
2023-03-31T18:19:04.067Z,22.67
2023-03-31T18:24:05.616Z,22.61
2023-03-31T18:29:07.011Z,22.61
2023-03-31T18:34:08.401Z,22.66
2023-03-31T18:39:09.890Z,22.65
2023-03-31T18:44:13.734Z,22.62
2023-03-31T18:49:15.784Z,22.63
2023-03-31T18:54:17.490Z,22.65
2023-03-31T18:59:18.929Z,22.63
2023-03-31T19:04:20.361Z,22.65
2023-03-31T19:09:23.879Z,22.62
2023-03-31T19:14:25.252Z,22.59
2023-03-31T19:19:27.031Z,22.63
2023-03-31T19:24:28.440Z,22.64
2023-03-31T19:29:31.637Z,22.57
2023-03-31T19:34:33.695Z,22.61
2023-03-31T19:39:35.704Z,22.64
2023-03-31T19:44:37.164Z,22.59
2023-03-31T19:49:38.641Z,22.59
2023-03-31T19:54:40.229Z,22.63
2023-03-31T19:59:41.613Z,22.62
2023-03-31T20:04:43.731Z,22.56
2023-03-31T20:09:45.923Z,22.60
2023-03-31T20:14:47.456Z,22.59
2023-03-31T20:19:48.861Z,22.57
2023-03-31T20:24:50.536Z,22.60
2023-03-31T20:29:52.440Z,22.63
2023-03-31T20:34:54.555Z,22.56
2023-03-31T20:39:56.657Z,22.56
2023-03-31T20:44:58.078Z,22.61
2023-03-31T20:49:59.484Z,22.58
2023-03-31T20:55:01.050Z,22.58
2023-03-31T21:00:03.142Z,22.60
2023-03-31T21:05:04.708Z,22.63
2023-03-31T21:10:07.106Z,22.58
2023-03-31T21:15:09.213Z,22.61
2023-03-31T21:20:10.694Z,22.61
2023-03-31T21:25:12.079Z,22.57
2023-03-31T21:30:14.153Z,22.59
2023-03-31T21:35:15.603Z,22.61
2023-03-31T21:40:16.996Z,22.55
2023-03-31T21:45:18.414Z,22.59
2023-03-31T21:50:20.038Z,22.62
2023-03-31T21:55:21.418Z,22.58
2023-03-31T22:00:22.827Z,22.60
2023-03-31T22:05:24.331Z,22.61
2023-03-31T22:10:25.723Z,22.60
2023-03-31T22:15:27.119Z,22.60
2023-03-31T22:20:28.495Z,22.60
2023-03-31T22:25:30.018Z,22.57
2023-03-31T22:30:31.606Z,22.54
2023-03-31T22:35:33.230Z,22.57
2023-03-31T22:40:35.056Z,22.59
2023-03-31T22:45:37.760Z,22.57
2023-03-31T22:50:40.758Z,22.57
2023-03-31T22:55:42.966Z,22.59
2023-03-31T23:00:57.040Z,22.58
2023-03-31T23:06:02.943Z,22.58
2023-03-31T23:11:05.007Z,22.58
2023-03-31T23:16:27.174Z,22.58
2023-03-31T23:21:28.699Z,22.54
2023-03-31T23:26:31.339Z,22.55
2023-03-31T23:31:33.066Z,22.59
2023-03-31T23:36:34.566Z,22.52
2023-03-31T23:41:36.015Z,22.55
2023-03-31T23:46:39.232Z,22.60
2023-03-31T23:51:40.714Z,22.55
2023-03-31T23:56:42.115Z,22.55
